createdAt,value
2023-01-18T00:00:11.024Z,-0.7
2023-01-18T00:01:13.829Z,-0.7
2023-01-18T00:02:17.991Z,-0.7
2023-01-18T00:03:21.443Z,-0.8
2023-01-18T00:04:25.420Z,-0.8
2023-01-18T00:05:28.514Z,-0.8
2023-01-18T00:06:32.129Z,-0.8
2023-01-18T00:07:35.855Z,-0.8
2023-01-18T00:08:38.945Z,-0.9
2023-01-18T00:09:42.586Z,-0.9
2023-01-18T00:10:46.025Z,-0.9
2023-01-18T00:11:49.679Z,-0.9
2023-01-18T00:12:52.687Z,-0.9
2023-01-18T00:13:55.806Z,-1
2023-01-18T00:14:58.804Z,-1
2023-01-18T00:16:02.210Z,-0.9
2023-01-18T00:17:05.363Z,-1
2023-01-18T00:18:09.558Z,-1
2023-01-18T00:19:13.267Z,-1
2023-01-18T00:20:16.663Z,-1
2023-01-18T00:21:19.899Z,-1
2023-01-18T00:22:22.964Z,-1.1
2023-01-18T00:23:25.958Z,-1
2023-01-18T00:24:29.021Z,-1
2023-01-18T00:25:32.223Z,-1
2023-01-18T00:26:35.232Z,-1
2023-01-18T00:27:38.411Z,-1
2023-01-18T00:28:41.511Z,-1
2023-01-18T00:29:44.975Z,-1
2023-01-18T00:30:48.161Z,-1
2023-01-18T00:31:51.677Z,-1
2023-01-18T00:32:56.596Z,-1
2023-01-18T00:34:01.551Z,-1
2023-01-18T00:35:04.255Z,-1
2023-01-18T00:36:07.121Z,-1
2023-01-18T00:37:09.932Z,-1
2023-01-18T00:38:13.299Z,-1
2023-01-18T00:39:16.705Z,-1
2023-01-18T00:40:19.289Z,-1
2023-01-18T00:41:22.689Z,-1
2023-01-18T00:42:26.484Z,-1
2023-01-18T00:43:29.546Z,-0.9
2023-01-18T00:44:32.598Z,-0.9
2023-01-18T00:45:36.148Z,-0.9
2023-01-18T00:46:39.607Z,-0.9
2023-01-18T00:47:42.680Z,-0.9
2023-01-18T00:48:46.062Z,-0.9
2023-01-18T00:49:50.401Z,-0.9
2023-01-18T00:50:53.401Z,-0.9
2023-01-18T00:51:59.839Z,-0.9
2023-01-18T00:53:02.343Z,-0.8
2023-01-18T00:54:05.179Z,-0.8
2023-01-18T00:55:08.477Z,-0.8
2023-01-18T00:56:11.283Z,-0.8
2023-01-18T00:57:14.356Z,-0.8
2023-01-18T00:58:17.063Z,-0.8
2023-01-18T00:59:19.851Z,-0.8
2023-01-18T01:00:22.898Z,-0.8
2023-01-18T01:01:26.584Z,-0.8
2023-01-18T01:02:29.918Z,-0.8
2023-01-18T01:03:33.113Z,-0.8
2023-01-18T01:04:36.208Z,-0.8
2023-01-18T01:05:40.182Z,-0.7
2023-01-18T01:06:43.526Z,-0.8
2023-01-18T01:07:46.861Z,-0.8
2023-01-18T01:08:49.848Z,-0.8
2023-01-18T01:09:52.817Z,-0.7
2023-01-18T01:10:55.570Z,-0.7
2023-01-18T01:11:58.361Z,-0.7
2023-01-18T01:13:01.649Z,-0.7
2023-01-18T01:14:05.011Z,-0.8
2023-01-18T01:15:08.758Z,-0.8
2023-01-18T01:16:11.994Z,-0.8
2023-01-18T01:17:15.375Z,-0.7
2023-01-18T01:18:18.099Z,-0.7
2023-01-18T01:19:20.981Z,-0.7
2023-01-18T01:20:24.720Z,-0.7
2023-01-18T01:21:28.831Z,-0.8
2023-01-18T01:22:31.999Z,-0.7
2023-01-18T01:23:35.089Z,-0.8
2023-01-18T01:24:38.376Z,-0.7
2023-01-18T01:25:40.850Z,-0.7
2023-01-18T01:26:43.552Z,-0.7
2023-01-18T01:27:46.795Z,-0.7
2023-01-18T01:28:49.612Z,-0.7
2023-01-18T01:29:52.470Z,-0.7
2023-01-18T01:30:55.713Z,-0.7
2023-01-18T01:31:59.059Z,-0.7
2023-01-18T01:33:01.970Z,-0.7
2023-01-18T01:34:05.329Z,-0.7
2023-01-18T01:35:08.172Z,-0.7
2023-01-18T01:36:11.462Z,-0.7
2023-01-18T01:37:15.600Z,-0.7
2023-01-18T01:38:18.344Z,-0.7
2023-01-18T01:39:21.705Z,-0.7
2023-01-18T01:40:24.563Z,-0.7
2023-01-18T01:41:27.645Z,-0.7
2023-01-18T01:42:30.392Z,-0.7
2023-01-18T01:43:33.761Z,-0.7
2023-01-18T01:44:37.096Z,-0.7
2023-01-18T01:45:40.374Z,-0.7
2023-01-18T01:46:44.165Z,-0.6
2023-01-18T01:47:47.189Z,-0.6
2023-01-18T01:48:50.027Z,-0.6
2023-01-18T01:49:52.743Z,-0.6
2023-01-18T01:50:55.958Z,-0.6
2023-01-18T01:51:59.583Z,-0.6
2023-01-18T01:53:03.757Z,-0.7
2023-01-18T01:54:07.172Z,-0.7
2023-01-18T01:55:09.698Z,-0.7
2023-01-18T01:56:12.498Z,-0.7
2023-01-18T01:57:15.846Z,-0.7
2023-01-18T01:58:18.951Z,-0.7
2023-01-18T01:59:21.965Z,-0.7
2023-01-18T02:00:25.319Z,-0.7
2023-01-18T02:01:28.709Z,-0.7
2023-01-18T02:02:32.074Z,-0.8
2023-01-18T02:03:35.620Z,-0.8
2023-01-18T02:04:39.265Z,-0.8
2023-01-18T02:05:43.003Z,-0.7
2023-01-18T02:06:46.186Z,-0.7
2023-01-18T02:07:49.942Z,-0.7
2023-01-18T02:08:54.114Z,-0.7
2023-01-18T02:09:57.246Z,-0.7
2023-01-18T02:11:00.219Z,-0.7
2023-01-18T02:12:03.007Z,-0.7
2023-01-18T02:13:05.139Z,-0.7
2023-01-18T02:14:08.116Z,-0.7
2023-01-18T02:15:11.373Z,-0.7
2023-01-18T02:16:14.542Z,-0.7
2023-01-18T02:17:17.252Z,-0.7
2023-01-18T02:18:20.312Z,-0.7
2023-01-18T02:19:23.515Z,-0.7
2023-01-18T02:20:26.507Z,-0.7
2023-01-18T02:21:29.625Z,-0.7
2023-01-18T02:22:31.809Z,-0.7
2023-01-18T02:23:35.083Z,-0.8
2023-01-18T02:24:39.394Z,-0.8
2023-01-18T02:25:42.323Z,-0.8
2023-01-18T02:26:44.755Z,-0.8
2023-01-18T02:27:47.757Z,-0.8
2023-01-18T02:28:51.382Z,-0.8
2023-01-18T02:29:54.172Z,-0.8
2023-01-18T02:30:57.724Z,-0.8
2023-01-18T02:32:00.952Z,-0.9
2023-01-18T02:33:04.018Z,-0.8
2023-01-18T02:34:07.424Z,-0.9
2023-01-18T02:35:10.432Z,-0.9
2023-01-18T02:36:13.579Z,-0.8
2023-01-18T02:37:16.837Z,-0.8
2023-01-18T02:38:20.287Z,-0.8
2023-01-18T02:39:23.415Z,-0.8
2023-01-18T02:40:27.376Z,-0.8
2023-01-18T02:41:30.592Z,-0.8
2023-01-18T02:42:33.299Z,-0.8
2023-01-18T02:43:36.396Z,-0.8
2023-01-18T02:44:40.210Z,-0.8
2023-01-18T02:45:42.684Z,-0.8
2023-01-18T02:46:46.688Z,-0.8
2023-01-18T02:47:48.940Z,-0.9
2023-01-18T02:48:52.584Z,-0.8
2023-01-18T02:49:55.584Z,-0.8
2023-01-18T02:50:58.015Z,-0.8
2023-01-18T02:52:01.375Z,-0.8
2023-01-18T02:53:03.559Z,-0.8
2023-01-18T02:54:06.095Z,-0.8
2023-01-18T02:55:08.993Z,-0.8
2023-01-18T02:56:12.917Z,-0.8
2023-01-18T02:57:16.389Z,-0.8
2023-01-18T02:58:19.461Z,-0.8
2023-01-18T02:59:23.108Z,-0.8
2023-01-18T03:00:26.536Z,-0.7
2023-01-18T03:01:30.054Z,-0.7
2023-01-18T03:02:32.996Z,-0.7
2023-01-18T03:03:35.761Z,-0.7
2023-01-18T03:04:39.511Z,-0.7
2023-01-18T03:05:42.593Z,-0.7
2023-01-18T03:06:45.430Z,-0.7
2023-01-18T03:07:47.563Z,-0.7
2023-01-18T03:08:50.726Z,-0.7
2023-01-18T03:09:53.481Z,-0.7
2023-01-18T03:10:56.208Z,-0.7
2023-01-18T03:12:00.405Z,-0.7
2023-01-18T03:13:02.305Z,-0.7
2023-01-18T03:14:05.295Z,-0.7
2023-01-18T03:15:08.743Z,-0.7
2023-01-18T03:16:11.735Z,-0.7
2023-01-18T03:17:15.465Z,-0.7
2023-01-18T03:18:18.181Z,-0.7
2023-01-18T03:19:21.167Z,-0.7
2023-01-18T03:20:27.287Z,-0.7
2023-01-18T03:21:30.418Z,-0.7
2023-01-18T03:22:33.411Z,-0.6
2023-01-18T03:23:36.947Z,-0.6
2023-01-18T03:24:40.618Z,-0.6
2023-01-18T03:25:44.100Z,-0.6
2023-01-18T03:26:47.359Z,-0.6
2023-01-18T03:27:51.698Z,-0.5
2023-01-18T03:28:54.781Z,-0.5
2023-01-18T03:29:58.154Z,-0.5
2023-01-18T03:31:01.546Z,-0.5
2023-01-18T03:32:04.406Z,-0.6
2023-01-18T03:33:07.503Z,-0.6
2023-01-18T03:34:10.005Z,-0.6
2023-01-18T03:35:13.047Z,-0.6
2023-01-18T03:36:16.484Z,-0.6
2023-01-18T03:37:19.289Z,-0.6
2023-01-18T03:38:21.997Z,-0.6
2023-01-18T03:39:25.158Z,-0.6
2023-01-18T03:40:28.016Z,-0.7
2023-01-18T03:41:30.966Z,-0.7
2023-01-18T03:42:34.292Z,-0.7
2023-01-18T03:43:38.620Z,-0.7
2023-01-18T03:44:41.486Z,-0.7
2023-01-18T03:45:44.860Z,-0.8
2023-01-18T03:46:47.922Z,-0.8
2023-01-18T03:47:51.575Z,-0.8
2023-01-18T03:48:54.561Z,-0.8
2023-01-18T03:49:56.801Z,-0.8
2023-01-18T03:50:59.222Z,-0.9
2023-01-18T03:52:02.235Z,-0.8
2023-01-18T03:53:04.777Z,-0.9
2023-01-18T03:54:07.570Z,-0.9
2023-01-18T03:55:10.782Z,-0.9
2023-01-18T03:56:13.231Z,-0.9
2023-01-18T03:57:16.271Z,-0.9
2023-01-18T03:58:19.702Z,-0.9
2023-01-18T03:59:23.911Z,-0.9
2023-01-18T04:00:26.652Z,-0.9
2023-01-18T04:01:30.444Z,-0.9
2023-01-18T04:02:34.300Z,-0.9
2023-01-18T04:03:37.483Z,-0.9
2023-01-18T04:04:40.582Z,-0.9
2023-01-18T04:05:44.322Z,-0.9
2023-01-18T04:06:47.354Z,-0.9
2023-01-18T04:07:50.369Z,-0.9
2023-01-18T04:08:53.467Z,-1
2023-01-18T04:09:56.615Z,-1
2023-01-18T04:10:59.959Z,-0.9
2023-01-18T04:12:02.883Z,-0.9
2023-01-18T04:13:06.239Z,-1
2023-01-18T04:14:08.677Z,-1
2023-01-18T04:15:12.928Z,-1
2023-01-18T04:16:16.049Z,-1.1
2023-01-18T04:17:19.475Z,-1.1
2023-01-18T04:18:22.803Z,-1.1
2023-01-18T04:19:25.621Z,-1.1
2023-01-18T04:20:28.990Z,-1.1
2023-01-18T04:21:31.765Z,-1.1
2023-01-18T04:22:34.537Z,-1.2
2023-01-18T04:23:37.647Z,-1.2
2023-01-18T04:24:41.038Z,-1.2
2023-01-18T04:25:43.764Z,-1.2
2023-01-18T04:26:46.285Z,-1.2
2023-01-18T04:27:49.067Z,-1.3
2023-01-18T04:28:51.886Z,-1.3
2023-01-18T04:29:55.310Z,-1.4
2023-01-18T04:30:59.657Z,-1.4
2023-01-18T04:32:03.030Z,-1.4
2023-01-18T04:33:05.507Z,-1.4
2023-01-18T04:34:09.057Z,-1.5
2023-01-18T04:35:12.377Z,-1.5
2023-01-18T04:36:14.819Z,-1.5
2023-01-18T04:37:18.477Z,-1.5
2023-01-18T04:38:21.858Z,-1.5
2023-01-18T04:39:24.752Z,-1.5
2023-01-18T04:40:27.297Z,-1.5
2023-01-18T04:41:30.020Z,-1.5
2023-01-18T04:42:33.343Z,-1.5
2023-01-18T04:43:36.781Z,-1.5
2023-01-18T04:44:39.938Z,-1.5
2023-01-18T04:45:43.591Z,-1.6
2023-01-18T04:46:48.098Z,-1.6
2023-01-18T04:47:51.253Z,-1.6
2023-01-18T04:48:54.704Z,-1.6
2023-01-18T04:49:57.436Z,-1.6
2023-01-18T04:51:01.496Z,-1.7
2023-01-18T04:52:05.210Z,-1.7
2023-01-18T04:53:08.275Z,-1.7
2023-01-18T04:54:11.988Z,-1.7
2023-01-18T04:55:14.417Z,-1.8
2023-01-18T04:56:16.931Z,-1.8
2023-01-18T04:57:19.667Z,-1.7
2023-01-18T04:58:22.416Z,-1.7
2023-01-18T04:59:25.558Z,-1.7
2023-01-18T05:00:29.370Z,-1.7
2023-01-18T05:01:33.024Z,-1.6
2023-01-18T05:02:37.692Z,-1.6
2023-01-18T05:03:41.148Z,-1.6
2023-01-18T05:04:44.608Z,-1.6
2023-01-18T05:05:48.058Z,-1.6
2023-01-18T05:06:50.853Z,-1.6
2023-01-18T05:07:54.564Z,-1.5
2023-01-18T05:08:57.288Z,-1.5
2023-01-18T05:10:00.922Z,-1.5
2023-01-18T05:11:03.720Z,-1.5
2023-01-18T05:12:06.996Z,-1.4
2023-01-18T05:13:10.275Z,-1.4
2023-01-18T05:14:13.354Z,-1.4
2023-01-18T05:15:16.657Z,-1.4
2023-01-18T05:16:20.921Z,-1.3
2023-01-18T05:17:24.442Z,-1.4
2023-01-18T05:18:28.363Z,-1.3
2023-01-18T05:19:31.191Z,-1.3
2023-01-18T05:20:34.659Z,-1.4
2023-01-18T05:21:38.033Z,-1.3
2023-01-18T05:22:41.314Z,-1.3
2023-01-18T05:23:44.662Z,-1.3
2023-01-18T05:24:48.407Z,-1.3
2023-01-18T05:25:51.456Z,-1.3
2023-01-18T05:26:55.177Z,-1.3
2023-01-18T05:27:57.903Z,-1.2
2023-01-18T05:29:00.959Z,-1.2
2023-01-18T05:30:07.669Z,-1.2
2023-01-18T05:31:11.039Z,-1.2
2023-01-18T05:32:14.595Z,-1.2
2023-01-18T05:33:17.922Z,-1.2
2023-01-18T05:34:22.107Z,-1.2
2023-01-18T05:35:25.543Z,-1.1
2023-01-18T05:36:29.182Z,-1
2023-01-18T05:37:31.996Z,-1.1
2023-01-18T05:38:35.085Z,-1.1
2023-01-18T05:39:37.529Z,-1.1
2023-01-18T05:40:41.246Z,-1.1
2023-01-18T05:41:43.753Z,-1.1
2023-01-18T05:42:47.023Z,-1.1
2023-01-18T05:43:49.852Z,-1.1
2023-01-18T05:44:52.929Z,-1.1
2023-01-18T05:45:56.187Z,-1.1
2023-01-18T05:46:58.940Z,-1.1
2023-01-18T05:48:01.785Z,-1.1
2023-01-18T05:49:04.875Z,-1.1
2023-01-18T05:50:09.035Z,-1.2
2023-01-18T05:51:12.078Z,-1.3
2023-01-18T05:52:14.803Z,-1.3
2023-01-18T05:53:17.929Z,-1.3
2023-01-18T05:54:21.025Z,-1.4
2023-01-18T05:55:23.908Z,-1.4
2023-01-18T05:56:26.653Z,-1.4
2023-01-18T05:57:29.636Z,-1.4
2023-01-18T05:58:31.867Z,-1.4
2023-01-18T05:59:34.356Z,-1.4
2023-01-18T06:00:37.160Z,-1.4
2023-01-18T06:01:40.388Z,-1.4
2023-01-18T06:02:43.897Z,-1.4
2023-01-18T06:03:46.933Z,-1.5
2023-01-18T06:04:49.940Z,-1.5
2023-01-18T06:05:54.114Z,-1.5
2023-01-18T06:06:57.404Z,-1.6
2023-01-18T06:08:00.411Z,-1.6
2023-01-18T06:09:03.806Z,-1.6
2023-01-18T06:10:06.705Z,-1.7
2023-01-18T06:11:09.497Z,-1.6
2023-01-18T06:12:12.554Z,-1.7
2023-01-18T06:13:15.357Z,-1.7
2023-01-18T06:14:18.443Z,-1.6
2023-01-18T06:15:21.679Z,-1.6
2023-01-18T06:16:25.788Z,-1.7
2023-01-18T06:17:28.337Z,-1.7
2023-01-18T06:18:31.488Z,-1.7
2023-01-18T06:19:34.498Z,-1.7
2023-01-18T06:20:37.839Z,-1.7
2023-01-18T06:21:41.976Z,-1.7
2023-01-18T06:22:44.685Z,-1.8
2023-01-18T06:23:48.358Z,-1.8
2023-01-18T06:24:51.475Z,-1.8
2023-01-18T06:25:54.267Z,-1.8
2023-01-18T06:26:57.077Z,-1.8
2023-01-18T06:27:59.935Z,-1.8
2023-01-18T06:29:03.016Z,-1.8
2023-01-18T06:30:05.821Z,-1.8
2023-01-18T06:31:08.913Z,-1.8
2023-01-18T06:32:11.626Z,-1.9
2023-01-18T06:33:14.415Z,-1.9
2023-01-18T06:34:17.856Z,-1.9
2023-01-18T06:35:20.666Z,-1.9
2023-01-18T06:36:23.746Z,-1.9
2023-01-18T06:37:28.066Z,-1.9
2023-01-18T06:38:31.362Z,-1.9
2023-01-18T06:39:33.230Z,-1.9
2023-01-18T06:40:36.102Z,-1.9
2023-01-18T06:41:38.820Z,-1.9
2023-01-18T06:42:41.644Z,-1.9
2023-01-18T06:43:45.102Z,-1.9
2023-01-18T06:44:47.732Z,-2
2023-01-18T06:45:54.189Z,-2
2023-01-18T06:46:57.327Z,-2.1
2023-01-18T06:48:00.992Z,-2.1
2023-01-18T06:49:04.397Z,-2.1
2023-01-18T06:50:08.472Z,-2
2023-01-18T06:51:11.500Z,-2
2023-01-18T06:52:14.595Z,-2
2023-01-18T06:53:18.727Z,-2
2023-01-18T06:54:22.125Z,-2
2023-01-18T06:55:25.624Z,-2
2023-01-18T06:56:29.341Z,-2
2023-01-18T06:57:32.041Z,-2
2023-01-18T06:58:34.846Z,-2.1
2023-01-18T06:59:38.131Z,-2.1
2023-01-18T07:00:40.836Z,-2.1
2023-01-18T07:01:45.209Z,-2.1
2023-01-18T07:02:47.982Z,-2.2
2023-01-18T07:03:51.077Z,-2.1
2023-01-18T07:04:53.877Z,-2.1
2023-01-18T07:05:57.260Z,-2.1
2023-01-18T07:07:00.675Z,-2.1
2023-01-18T07:08:04.009Z,-2.1
2023-01-18T07:09:08.152Z,-2.1
2023-01-18T07:10:11.648Z,-2.1
2023-01-18T07:11:16.126Z,-2.1
2023-01-18T07:12:19.453Z,-2.1
2023-01-18T07:13:22.899Z,-2.1
2023-01-18T07:14:25.926Z,-2
2023-01-18T07:15:28.706Z,-2
2023-01-18T07:16:32.282Z,-2
2023-01-18T07:17:35.645Z,-2
2023-01-18T07:18:39.372Z,-2
2023-01-18T07:19:43.032Z,-2
2023-01-18T07:20:46.059Z,-2
2023-01-18T07:21:48.834Z,-2
2023-01-18T07:22:51.287Z,-2
2023-01-18T07:23:54.303Z,-2
2023-01-18T07:24:58.482Z,-2
2023-01-18T07:26:01.269Z,-2
2023-01-18T07:27:04.590Z,-2
2023-01-18T07:28:07.467Z,-2
2023-01-18T07:29:10.750Z,-2
2023-01-18T07:30:13.823Z,-2
2023-01-18T07:31:16.902Z,-2
2023-01-18T07:32:20.694Z,-2
2023-01-18T07:33:23.814Z,-2
2023-01-18T07:34:26.551Z,-2
2023-01-18T07:35:29.618Z,-2
2023-01-18T07:36:32.959Z,-2
2023-01-18T07:37:35.784Z,-2
2023-01-18T07:38:39.448Z,-1.9
2023-01-18T07:39:42.601Z,-1.9
2023-01-18T07:40:46.767Z,-1.9
2023-01-18T07:41:49.766Z,-1.9
2023-01-18T07:42:52.753Z,-1.9
2023-01-18T07:43:56.036Z,-1.9
2023-01-18T07:44:59.226Z,-1.9
2023-01-18T07:46:02.849Z,-1.9
2023-01-18T07:47:06.517Z,-1.9
2023-01-18T07:48:09.950Z,-1.9
2023-01-18T07:49:12.969Z,-1.9
2023-01-18T07:50:16.399Z,-1.9
2023-01-18T07:51:19.763Z,-1.9
2023-01-18T07:52:22.661Z,-1.8
2023-01-18T07:53:26.682Z,-1.8
2023-01-18T07:54:30.351Z,-1.8
2023-01-18T07:55:33.715Z,-1.8
2023-01-18T07:56:37.698Z,-1.8
2023-01-18T07:57:40.162Z,-1.8
2023-01-18T07:58:43.465Z,-1.8
2023-01-18T07:59:47.206Z,-1.8
2023-01-18T08:00:50.477Z,-1.8
2023-01-18T08:01:54.187Z,-1.8
2023-01-18T08:03:02.560Z,-1.8
2023-01-18T08:04:06.626Z,-1.8
2023-01-18T08:05:10.050Z,-1.8
2023-01-18T08:06:13.281Z,-1.9
2023-01-18T08:07:16.548Z,-1.9
2023-01-18T08:08:19.073Z,-1.8
2023-01-18T08:09:22.347Z,-1.9
2023-01-18T08:10:25.839Z,-1.9
2023-01-18T08:11:29.009Z,-1.8
2023-01-18T08:12:33.107Z,-1.8
2023-01-18T08:13:37.130Z,-1.9
2023-01-18T08:14:40.122Z,-1.9
2023-01-18T08:15:43.666Z,-1.9
2023-01-18T08:16:47.442Z,-1.8
2023-01-18T08:17:50.515Z,-1.8
2023-01-18T08:18:53.838Z,-1.8
2023-01-18T08:19:57.217Z,-1.8
2023-01-18T08:21:00.336Z,-1.8
2023-01-18T08:22:03.828Z,-1.7
2023-01-18T08:23:06.960Z,-1.7
2023-01-18T08:24:10.610Z,-1.7
2023-01-18T08:25:13.767Z,-1.7
2023-01-18T08:26:17.544Z,-1.6
2023-01-18T08:27:20.952Z,-1.6
2023-01-18T08:28:25.079Z,-1.6
2023-01-18T08:29:28.083Z,-1.6
2023-01-18T08:30:31.728Z,-1.6
2023-01-18T08:31:35.984Z,-1.5
2023-01-18T08:32:38.990Z,-1.5
2023-01-18T08:33:42.281Z,-1.5
2023-01-18T08:34:45.286Z,-1.5
2023-01-18T08:35:48.601Z,-1.5
2023-01-18T08:36:51.323Z,-1.5
2023-01-18T08:37:54.787Z,-1.5
2023-01-18T08:38:58.788Z,-1.4
2023-01-18T08:40:02.152Z,-1.4
2023-01-18T08:41:05.444Z,-1.4
2023-01-18T08:42:08.767Z,-1.4
2023-01-18T08:43:12.493Z,-1.3
2023-01-18T08:44:16.816Z,-1.3
2023-01-18T08:45:19.438Z,-1.3
2023-01-18T08:46:23.447Z,-1.3
2023-01-18T08:47:27.115Z,-1.3
2023-01-18T08:48:30.943Z,-1.2
2023-01-18T08:49:34.413Z,-1.2
2023-01-18T08:50:38.143Z,-1.2
2023-01-18T08:51:41.545Z,-1.1
2023-01-18T08:52:44.333Z,-1.1
2023-01-18T08:53:47.407Z,-1.1
2023-01-18T08:54:50.844Z,-1
2023-01-18T08:55:54.018Z,-1
2023-01-18T08:56:56.876Z,-1.1
2023-01-18T08:58:00.593Z,-1.1
2023-01-18T08:59:04.053Z,-1
2023-01-18T09:00:08.295Z,-1.1
2023-01-18T09:01:11.879Z,-1.1
2023-01-18T09:02:15.678Z,-1.1
2023-01-18T09:03:18.963Z,-1
2023-01-18T09:04:22.128Z,-1
2023-01-18T09:05:25.534Z,-1
2023-01-18T09:06:29.149Z,-1
2023-01-18T09:07:32.042Z,-1
2023-01-18T09:08:36.029Z,-1
2023-01-18T09:09:40.060Z,-1
2023-01-18T09:10:42.828Z,-0.9
2023-01-18T09:11:46.465Z,-0.9
2023-01-18T09:12:49.386Z,-0.9
2023-01-18T09:14:03.525Z,-0.8
2023-01-18T09:15:06.523Z,-0.8
2023-01-18T09:16:11.096Z,-0.8
2023-01-18T09:17:13.684Z,-0.8
2023-01-18T09:18:16.502Z,-0.8
2023-01-18T09:19:19.865Z,-0.7
2023-01-18T09:20:22.709Z,-0.7
2023-01-18T09:21:26.077Z,-0.7
2023-01-18T09:22:29.206Z,-0.7
2023-01-18T09:23:31.655Z,-0.7
2023-01-18T09:24:35.020Z,-0.7
2023-01-18T09:25:37.923Z,-0.8
2023-01-18T09:26:41.504Z,-0.8
2023-01-18T09:27:44.918Z,-0.8
2023-01-18T09:28:47.796Z,-0.8
2023-01-18T09:29:51.528Z,-0.7
2023-01-18T09:30:54.881Z,-0.7
2023-01-18T09:31:58.802Z,-0.7
2023-01-18T09:33:03.501Z,-0.6
2023-01-18T09:34:21.153Z,-0.6
2023-01-18T09:35:25.129Z,-0.6
2023-01-18T09:36:28.771Z,-0.6
2023-01-18T09:37:32.210Z,-0.6
2023-01-18T09:38:34.932Z,-0.6
2023-01-18T09:39:53.883Z,-0.5
2023-01-18T09:40:57.452Z,-0.5
2023-01-18T09:42:00.176Z,-0.4
2023-01-18T09:43:03.157Z,-0.4
2023-01-18T09:44:06.274Z,-0.4
2023-01-18T09:45:10.026Z,-0.3
2023-01-18T09:46:13.755Z,-0.3
2023-01-18T09:47:18.075Z,-0.2
2023-01-18T09:48:21.569Z,-0.2
2023-01-18T09:49:25.592Z,-0.2
2023-01-18T09:50:28.795Z,-0.2
2023-01-18T09:51:32.249Z,-0.2
2023-01-18T09:52:34.733Z,-0.1
2023-01-18T09:53:38.139Z,-0.1
2023-01-18T09:54:41.136Z,0
2023-01-18T09:55:44.566Z,0
2023-01-18T09:56:48.017Z,0.1
2023-01-18T09:57:50.807Z,0.1
2023-01-18T09:58:53.610Z,0.1
2023-01-18T09:59:56.336Z,0.2
2023-01-18T10:01:00.201Z,0.2
2023-01-18T10:02:04.196Z,0.3
2023-01-18T10:03:08.663Z,0.3
2023-01-18T10:04:11.098Z,0.3
2023-01-18T10:05:14.837Z,0.3
2023-01-18T10:06:18.562Z,0.4
2023-01-18T10:07:22.592Z,0.5
2023-01-18T10:08:25.602Z,0.5
2023-01-18T10:09:28.980Z,0.6
2023-01-18T10:10:32.340Z,0.6
2023-01-18T10:11:36.375Z,0.6
2023-01-18T10:12:40.483Z,0.7
2023-01-18T10:13:43.481Z,0.7
2023-01-18T10:14:46.595Z,0.8
2023-01-18T10:15:49.950Z,0.8
2023-01-18T10:16:56.202Z,0.8
2023-01-18T10:17:59.593Z,0.9
2023-01-18T10:19:03.956Z,0.9
2023-01-18T10:20:07.671Z,0.9
2023-01-18T10:21:11.062Z,0.9
2023-01-18T10:22:14.893Z,1
2023-01-18T10:23:18.019Z,1.1
2023-01-18T10:24:21.436Z,1
2023-01-18T10:25:24.410Z,1
2023-01-18T10:26:27.876Z,1.1
2023-01-18T10:27:31.488Z,1.1
2023-01-18T10:28:34.660Z,1.1
2023-01-18T10:29:38.376Z,1.2
2023-01-18T10:30:41.993Z,1.2
2023-01-18T10:31:46.112Z,1.3
2023-01-18T10:32:49.976Z,1.3
2023-01-18T10:33:53.242Z,1.4
2023-01-18T10:34:57.503Z,1.5
2023-01-18T10:36:01.554Z,1.5
2023-01-18T10:37:05.219Z,1.6
2023-01-18T10:38:08.639Z,1.6
2023-01-18T10:39:12.254Z,1.7
2023-01-18T10:40:15.367Z,1.8
2023-01-18T10:41:18.713Z,1.8
2023-01-18T10:42:22.093Z,1.8
2023-01-18T10:43:25.477Z,1.8
2023-01-18T10:44:29.184Z,1.8
2023-01-18T10:45:32.620Z,1.9
2023-01-18T10:46:35.149Z,1.9
2023-01-18T10:47:38.902Z,2
2023-01-18T10:48:42.325Z,1.9
2023-01-18T10:49:45.995Z,1.9
2023-01-18T10:50:53.940Z,1.9
2023-01-18T10:51:57.658Z,1.9
2023-01-18T10:53:02.834Z,2
2023-01-18T10:54:05.286Z,2.1
2023-01-18T10:55:08.088Z,2.1
2023-01-18T10:56:10.904Z,2.2
2023-01-18T10:57:13.978Z,2.2
2023-01-18T10:58:17.366Z,2.1
2023-01-18T10:59:20.418Z,2.2
2023-01-18T11:00:23.769Z,2.1
2023-01-18T11:01:27.990Z,2.1
2023-01-18T11:02:32.730Z,2
2023-01-18T11:03:36.612Z,2
2023-01-18T11:04:39.520Z,1.9
2023-01-18T11:05:42.225Z,2
2023-01-18T11:06:46.429Z,2
2023-01-18T11:07:49.561Z,2.2
2023-01-18T11:08:52.959Z,2.3
2023-01-18T11:09:56.407Z,2.3
2023-01-18T11:10:59.761Z,2.3
2023-01-18T11:12:03.562Z,2.3
2023-01-18T11:13:09.700Z,2.4
2023-01-18T11:14:12.639Z,2.4
2023-01-18T11:15:16.706Z,2.4
2023-01-18T11:16:19.989Z,2.4
2023-01-18T11:17:23.125Z,2.4
2023-01-18T11:18:26.402Z,2.4
2023-01-18T11:19:29.801Z,2.4
2023-01-18T11:20:32.864Z,2.4
2023-01-18T11:21:36.142Z,2.5
2023-01-18T11:22:40.373Z,2.5
2023-01-18T11:23:45.683Z,2.5
2023-01-18T11:24:49.208Z,2.5
2023-01-18T11:25:51.995Z,2.5
2023-01-18T11:26:55.355Z,2.6
2023-01-18T11:28:01.623Z,2.6
2023-01-18T11:29:05.514Z,2.6
2023-01-18T11:30:08.366Z,2.6
2023-01-18T11:31:11.852Z,2.7
2023-01-18T11:32:14.895Z,2.6
2023-01-18T11:33:18.321Z,2.6
2023-01-18T11:34:21.678Z,2.6
2023-01-18T11:35:24.754Z,2.6
2023-01-18T11:36:28.073Z,2.7
2023-01-18T11:37:31.187Z,2.7
2023-01-18T11:38:35.463Z,2.7
2023-01-18T11:39:37.934Z,2.7
2023-01-18T11:40:41.309Z,2.7
2023-01-18T11:41:44.093Z,2.7
2023-01-18T11:42:46.847Z,2.6
2023-01-18T11:43:50.474Z,2.6
2023-01-18T11:44:53.255Z,2.6
2023-01-18T11:45:57.008Z,2.6
2023-01-18T11:47:00.162Z,2.6
2023-01-18T11:48:04.446Z,2.7
2023-01-18T11:49:08.151Z,2.7
2023-01-18T11:50:24.265Z,2.8
2023-01-18T11:51:27.960Z,2.8
2023-01-18T11:52:31.269Z,2.8
2023-01-18T11:53:33.714Z,2.6
2023-01-18T11:54:37.996Z,2.7
2023-01-18T11:55:41.069Z,2.7
2023-01-18T11:56:44.154Z,2.7
2023-01-18T11:57:47.240Z,2.8
2023-01-18T11:58:51.251Z,2.8
2023-01-18T11:59:54.694Z,2.9
2023-01-18T12:00:58.205Z,3
2023-01-18T12:02:02.051Z,3
2023-01-18T12:03:05.991Z,3
2023-01-18T12:04:09.445Z,3
2023-01-18T12:05:12.193Z,2.9
2023-01-18T12:06:15.217Z,2.8
2023-01-18T12:07:18.866Z,2.8
2023-01-18T12:08:21.688Z,2.8
2023-01-18T12:09:25.087Z,2.7
2023-01-18T12:10:29.255Z,2.7
2023-01-18T12:11:32.942Z,2.7
2023-01-18T12:12:36.666Z,2.7
2023-01-18T12:13:40.082Z,2.8
2023-01-18T12:14:42.705Z,2.9
2023-01-18T12:15:46.377Z,2.9
2023-01-18T12:16:49.538Z,2.8
2023-01-18T12:18:16.039Z,2.8
2023-01-18T12:19:21.084Z,2.8
2023-01-18T12:20:24.441Z,2.8
2023-01-18T12:21:27.511Z,2.8
2023-01-18T12:22:30.698Z,2.9
2023-01-18T12:23:33.996Z,2.9
2023-01-18T12:24:37.360Z,2.9
2023-01-18T12:25:41.701Z,2.9
2023-01-18T12:26:45.091Z,3
2023-01-18T12:27:48.450Z,3
2023-01-18T12:28:51.840Z,2.9
2023-01-18T12:29:54.829Z,2.9
2023-01-18T12:30:58.351Z,2.9
2023-01-18T12:32:01.598Z,2.8
2023-01-18T12:33:04.367Z,2.9
2023-01-18T12:34:07.848Z,2.9
2023-01-18T12:35:26.760Z,2.9
2023-01-18T12:36:29.800Z,3
2023-01-18T12:37:33.151Z,3
2023-01-18T12:38:36.687Z,3
2023-01-18T12:39:39.778Z,3
2023-01-18T12:40:43.772Z,3
2023-01-18T12:41:47.584Z,3
2023-01-18T12:42:50.480Z,3
2023-01-18T12:43:53.179Z,3
2023-01-18T12:44:56.225Z,3
2023-01-18T12:45:59.144Z,3
2023-01-18T12:47:03.267Z,3
2023-01-18T12:48:06.693Z,3
2023-01-18T12:49:09.135Z,3
2023-01-18T12:50:12.187Z,3.1
2023-01-18T12:51:15.385Z,3.1
2023-01-18T12:52:20.949Z,3.1
2023-01-18T12:53:24.634Z,3.1
2023-01-18T12:54:27.793Z,3.1
2023-01-18T12:55:30.857Z,3.1
2023-01-18T12:56:35.101Z,3.1
2023-01-18T12:57:38.839Z,3
2023-01-18T12:58:42.296Z,3.1
2023-01-18T12:59:45.145Z,3.1
2023-01-18T13:00:48.211Z,3.1
2023-01-18T13:01:51.329Z,3.1
2023-01-18T13:02:55.304Z,3.1
2023-01-18T13:03:58.582Z,3.2
2023-01-18T13:05:01.575Z,3.2
2023-01-18T13:06:04.724Z,3.1
2023-01-18T13:07:08.517Z,3.2
2023-01-18T13:08:11.844Z,3.2
2023-01-18T13:09:15.227Z,3.2
2023-01-18T13:10:18.924Z,3.2
2023-01-18T13:11:21.955Z,3.2
2023-01-18T13:12:25.663Z,3.2
2023-01-18T13:13:29.255Z,3.1
2023-01-18T13:14:32.617Z,3.1
2023-01-18T13:15:36.010Z,3.1
2023-01-18T13:16:39.518Z,3
2023-01-18T13:17:42.614Z,3
2023-01-18T13:18:46.159Z,2.9
2023-01-18T13:19:48.950Z,3
2023-01-18T13:20:51.659Z,3
2023-01-18T13:21:55.395Z,2.9
2023-01-18T13:22:58.785Z,3
2023-01-18T13:24:01.844Z,3
2023-01-18T13:25:04.945Z,3
2023-01-18T13:26:08.359Z,2.9
2023-01-18T13:27:11.802Z,2.9
2023-01-18T13:28:15.694Z,3
2023-01-18T13:29:19.175Z,3
2023-01-18T13:30:22.527Z,3
2023-01-18T13:31:26.200Z,3
2023-01-18T13:32:30.365Z,3
2023-01-18T13:33:33.964Z,3
2023-01-18T13:34:50.097Z,3
2023-01-18T13:35:53.491Z,3
2023-01-18T13:37:16.394Z,2.9
2023-01-18T13:38:36.579Z,2.9
2023-01-18T13:39:45.264Z,2.9
2023-01-18T13:40:48.732Z,2.9
2023-01-18T13:41:52.480Z,2.8
2023-01-18T13:42:55.275Z,2.7
2023-01-18T13:43:58.978Z,2.7
2023-01-18T13:45:02.464Z,2.6
2023-01-18T13:46:05.150Z,2.6
2023-01-18T13:47:09.033Z,2.5
2023-01-18T13:48:12.512Z,2.5
2023-01-18T13:49:39.897Z,2.5
2023-01-18T13:50:43.631Z,2.5
2023-01-18T13:51:47.111Z,2.5
2023-01-18T13:52:49.813Z,2.5
2023-01-18T13:53:53.282Z,2.5
2023-01-18T13:54:55.746Z,2.6
2023-01-18T13:55:59.371Z,2.6
2023-01-18T13:57:03.030Z,2.6
2023-01-18T13:58:06.708Z,2.6
2023-01-18T13:59:10.925Z,2.6
2023-01-18T14:00:16.294Z,2.6
2023-01-18T14:01:20.929Z,2.6
2023-01-18T14:02:24.710Z,2.7
2023-01-18T14:03:28.625Z,2.7
2023-01-18T14:04:31.520Z,2.7
2023-01-18T14:05:34.806Z,2.7
2023-01-18T14:06:38.545Z,2.6
2023-01-18T14:07:41.610Z,2.6
2023-01-18T14:08:44.340Z,2.6
2023-01-18T14:09:47.814Z,2.6
2023-01-18T14:10:51.825Z,2.6
2023-01-18T14:11:55.913Z,2.6
2023-01-18T14:13:01.806Z,2.6
2023-01-18T14:14:06.403Z,2.6
2023-01-18T14:15:10.570Z,2.6
2023-01-18T14:16:14.913Z,2.5
2023-01-18T14:17:17.716Z,2.5
2023-01-18T14:18:21.208Z,2.5
2023-01-18T14:19:24.998Z,2.5
2023-01-18T14:20:28.776Z,2.5
2023-01-18T14:21:32.261Z,2.5
2023-01-18T14:22:35.681Z,2.5